Time;durP1;ratioP1;P1;durP2;ratioP2;P2;SDS_P1;SDS_P2;PMS_P1;PMS_P2;Temp;Humidity;BMP_temperature;BMP_pressure;BME280_temperature;BME280_humidity;BME280_pressure;Samples;Min_cycle;Max_cycle;Signal;HPM_P1;HPM_P2
2023/04/22 00:01:49;;;;;;;3.55;3.10;;;17.10;69.40;;;;;;5035190;28;20021;-74
2023/04/22 00:04:15;;;;;;;3.25;3.05;;;17.00;69.30;;;;;;5034609;28;20491;-74
2023/04/22 00:06:41;;;;;;;3.30;3.00;;;17.00;69.30;;;;;;5033807;28;20025;-74
2023/04/22 00:09:06;;;;;;;3.45;3.15;;;17.00;69.30;;;;;;5034769;28;20440;-74
2023/04/22 00:11:32;;;;;;;2.90;2.70;;;17.00;69.40;;;;;;5034717;28;20112;-74
2023/04/22 00:13:57;;;;;;;3.28;3.08;;;17.00;69.40;;;;;;5034524;28;20421;-74
2023/04/22 00:16:25;;;;;;;3.35;3.05;;;17.00;69.30;;;;;;5034657;28;20022;-74
2023/04/22 00:18:50;;;;;;;3.35;3.00;;;17.00;69.30;;;;;;5034827;28;20022;-74
2023/04/22 00:21:16;;;;;;;3.70;3.40;;;17.00;69.30;;;;;;5017064;28;20040;-74
2023/04/22 00:23:44;;;;;;;3.28;3.08;;;17.00;69.30;;;;;;5034521;28;20032;-74
2023/04/22 00:26:10;;;;;;;3.60;3.30;;;17.00;69.40;;;;;;5034597;28;20029;-74
2023/04/22 00:28:35;;;;;;;3.55;3.35;;;17.00;69.30;;;;;;5032888;28;20488;-74
2023/04/22 00:31:03;;;;;;;3.22;2.92;;;17.00;69.30;;;;;;5033484;28;20043;-74
2023/04/22 00:33:29;;;;;;;3.15;2.95;;;17.00;69.30;;;;;;5034516;28;20048;-74
2023/04/22 00:35:55;;;;;;;3.08;2.88;;;17.00;69.40;;;;;;5033324;28;20399;-74
2023/04/22 00:38:20;;;;;;;3.25;3.00;;;17.00;69.30;;;;;;5032132;28;20029;-74
2023/04/22 00:40:46;;;;;;;3.50;3.20;;;17.00;69.30;;;;;;5034447;28;20105;-74
2023/04/22 00:43:12;;;;;;;3.67;3.38;;;17.00;69.30;;;;;;5034079;28;20488;-74
2023/04/22 00:45:37;;;;;;;3.55;3.30;;;17.00;69.30;;;;;;5033159;28;20030;-74
2023/04/22 00:48:03;;;;;;;3.58;3.28;;;17.00;69.30;;;;;;5016327;28;20038;-74
2023/04/22 00:50:29;;;;;;;3.53;3.28;;;17.00;69.30;;;;;;5034022;28;20429;-74
2023/04/22 00:52:55;;;;;;;3.45;3.15;;;17.00;69.30;;;;;;5034035;28;20028;-74
2023/04/22 00:55:20;;;;;;;3.13;2.92;;;17.00;69.30;;;;;;5032450;28;20080;-74
2023/04/22 00:57:46;;;;;;;3.97;3.67;;;17.00;69.30;;;;;;5032600;28;20022;-74
2023/04/22 01:00:12;;;;;;;3.53;3.33;;;17.00;69.30;;;;;;5016183;28;20025;-74
2023/04/22 01:02:37;;;;;;;3.85;3.55;;;17.00;69.30;;;;;;5032623;28;20029;-74
2023/04/22 01:05:04;;;;;;;3.67;3.42;;;17.00;69.30;;;;;;5032564;28;20041;-74
2023/04/22 01:07:30;;;;;;;3.40;3.17;;;17.00;69.30;;;;;;5032519;28;20021;-74
2023/04/22 01:09:56;;;;;;;3.75;3.45;;;17.00;69.30;;;;;;5033600;28;20408;-74
2023/04/22 01:12:21;;;;;;;3.63;3.33;;;17.00;69.30;;;;;;5033271;28;20017;-74
2023/04/22 01:14:47;;;;;;;3.65;3.35;;;17.00;69.30;;;;;;5033658;28;20049;-74
2023/04/22 01:17:13;;;;;;;3.58;3.30;;;17.00;70.30;;;;;;5015921;28;20557;-74
2023/04/22 01:19:40;;;;;;;3.88;3.58;;;17.00;69.30;;;;;;5032335;28;20025;-74
2023/04/22 01:22:06;;;;;;;3.72;3.42;;;17.00;69.30;;;;;;5032425;28;20503;-74
2023/04/22 01:24:32;;;;;;;3.85;3.55;;;17.00;69.30;;;;;;5033239;28;20480;-74
2023/04/22 01:26:58;;;;;;;3.95;3.65;;;16.90;69.20;;;;;;5033243;28;20033;-74
2023/04/22 01:29:24;;;;;;;3.88;3.58;;;17.00;69.30;;;;;;5015666;28;20029;-74
2023/04/22 01:31:49;;;;;;;3.65;3.38;;;16.90;69.20;;;;;;5032099;28;20495;-74
2023/04/22 01:34:15;;;;;;;3.78;3.47;;;16.90;69.20;;;;;;5033252;28;20083;-74
2023/04/22 01:36:40;;;;;;;3.85;3.55;;;16.90;69.20;;;;;;5031987;28;20075;-74
2023/04/22 01:39:06;;;;;;;3.88;3.58;;;16.90;69.20;;;;;;5031928;28;20033;-74
2023/04/22 01:41:32;;;;;;;4.20;3.80;;;16.90;69.20;;;;;;5031749;28;20029;-74
2023/04/22 01:43:58;;;;;;;4.10;3.70;;;16.90;69.20;;;;;;5031850;28;20033;-74
2023/04/22 01:46:23;;;;;;;3.75;3.45;;;16.90;69.20;;;;;;5031990;28;20048;-74
2023/04/22 01:48:50;;;;;;;3.67;3.38;;;17.00;69.30;;;;;;5032845;28;20484;-74
2023/04/22 01:51:19;;;;;;;3.83;3.63;;;16.90;69.20;;;;;;5032796;28;20045;-74
2023/04/22 01:53:48;;;;;;;4.00;3.70;;;16.90;69.20;;;;;;5031646;28;20025;-74
2023/04/22 01:56:13;;;;;;;3.60;3.30;;;16.90;69.20;;;;;;5031396;28;20381;-74
2023/04/22 01:58:39;;;;;;;3.90;3.60;;;16.90;69.20;;;;;;5031499;28;20036;-74
2023/04/22 02:01:05;;;;;;;4.38;3.97;;;16.90;69.20;;;;;;5031751;28;20515;-74
2023/04/22 02:03:31;;;;;;;4.05;3.65;;;16.90;69.20;;;;;;5032632;28;20056;-74
2023/04/22 02:05:57;;;;;;;3.97;3.58;;;16.90;69.20;;;;;;5031432;28;20488;-74
2023/04/22 02:08:22;;;;;;;4.07;3.78;;;16.90;69.20;;;;;;5032827;28;20030;-74
2023/04/22 02:10:48;;;;;;;3.58;3.28;;;16.90;69.20;;;;;;5032306;28;20029;-74
2023/04/22 02:13:14;;;;;;;4.13;3.72;;;16.90;69.20;;;;;;5032412;28;20021;-74
2023/04/22 02:15:40;;;;;;;3.50;3.30;;;16.90;69.20;;;;;;5032663;28;20026;-74
2023/04/22 02:18:06;;;;;;;4.13;3.70;;;16.90;69.20;;;;;;5031326;28;20121;-74
2023/04/22 02:20:31;;;;;;;3.95;3.65;;;16.90;69.20;;;;;;5032469;28;20079;-74
2023/04/22 02:22:57;;;;;;;4.07;3.78;;;16.90;69.20;;;;;;5032281;28;20033;-74
2023/04/22 02:25:23;;;;;;;4.20;3.80;;;16.90;69.20;;;;;;5031335;28;20022;-74
2023/04/22 02:27:48;;;;;;;3.80;3.50;;;16.90;69.20;;;;;;5032168;28;20025;-74
2023/04/22 02:30:14;;;;;;;3.80;3.50;;;16.90;69.30;;;;;;5032530;28;20017;-74
2023/04/22 02:32:40;;;;;;;3.85;3.55;;;16.90;69.20;;;;;;5032395;28;20021;-74
2023/04/22 02:35:06;;;;;;;3.70;3.40;;;16.90;69.20;;;;;;5031147;28;20522;-74
2023/04/22 02:37:32;;;;;;;3.80;3.50;;;16.90;69.20;;;;;;5032052;28;20037;-74
2023/04/22 02:39:57;;;;;;;3.80;3.50;;;16.90;69.20;;;;;;5030895;28;20406;-74
2023/04/22 02:42:23;;;;;;;3.72;3.47;;;16.90;69.20;;;;;;5032408;28;20043;-74
2023/04/22 02:44:49;;;;;;;4.05;3.75;;;16.90;69.20;;;;;;5032215;28;20021;-74
2023/04/22 02:47:14;;;;;;;3.95;3.65;;;16.90;69.20;;;;;;5031187;28;20408;-74
2023/04/22 02:49:40;;;;;;;3.92;3.63;;;16.90;69.20;;;;;;5030975;28;20021;-74
2023/04/22 02:52:05;;;;;;;4.18;3.88;;;16.90;69.20;;;;;;5032009;28;20030;-74
2023/04/22 02:54:31;;;;;;;3.78;3.47;;;16.90;69.20;;;;;;5031930;28;20100;-74
2023/04/22 02:56:57;;;;;;;3.85;3.55;;;16.90;69.20;;;;;;5032245;28;20025;-74
2023/04/22 02:59:23;;;;;;;3.72;3.53;;;16.90;69.20;;;;;;5032236;28;20038;-74
2023/04/22 03:01:48;;;;;;;3.78;3.47;;;16.90;69.20;;;;;;5034905;28;20446;-74
2023/04/22 03:04:14;;;;;;;4.05;3.75;;;16.80;69.20;;;;;;5036073;28;20021;-74
2023/04/22 03:06:40;;;;;;;4.20;3.83;;;16.80;69.10;;;;;;5035689;28;20037;-74
2023/04/22 03:09:05;;;;;;;4.05;3.75;;;16.90;69.20;;;;;;5035054;28;20104;-74
2023/04/22 03:11:31;;;;;;;4.18;3.70;;;16.90;69.20;;;;;;5035690;28;20025;-74
2023/04/22 03:13:57;;;;;;;3.92;3.63;;;16.80;69.20;;;;;;5035984;28;20078;-74
2023/04/22 03:16:23;;;;;;;3.28;3.08;;;16.80;69.20;;;;;;5035963;28;20074;-74
2023/04/22 03:18:48;;;;;;;3.78;3.58;;;16.90;69.20;;;;;;5018166;28;20151;-74
2023/04/22 03:21:14;;;;;;;3.90;3.50;;;16.90;69.20;;;;;;5035693;28;20112;-74
2023/04/22 03:23:39;;;;;;;3.88;3.50;;;16.80;69.10;;;;;;5035677;28;20025;-74
2023/04/22 03:26:05;;;;;;;3.50;3.30;;;16.80;69.10;;;;;;5035670;28;20037;-74
2023/04/22 03:28:31;;;;;;;4.25;3.70;;;16.80;69.20;;;;;;5035516;28;20028;-74
2023/04/22 03:30:56;;;;;;;4.20;3.90;;;16.80;69.10;;;;;;5034659;28;20037;-74
2023/04/22 03:33:22;;;;;;;3.78;3.58;;;16.80;69.20;;;;;;5035627;28;20415;-74
2023/04/22 03:35:48;;;;;;;4.45;3.78;;;16.80;69.20;;;;;;5035136;28;20037;-74
2023/04/22 03:38:14;;;;;;;3.55;3.33;;;16.80;69.20;;;;;;5035579;28;20032;-74
2023/04/22 03:40:40;;;;;;;3.90;3.58;;;16.80;69.10;;;;;;5034077;28;20464;-74
2023/04/22 03:43:06;;;;;;;3.90;3.60;;;16.80;69.10;;;;;;5035410;28;20095;-74
2023/04/22 03:45:32;;;;;;;3.85;3.55;;;16.80;69.20;;;;;;5035231;28;20472;-74
2023/04/22 03:47:57;;;;;;;4.15;3.85;;;16.80;69.10;;;;;;5034094;28;20032;-74
2023/04/22 03:50:23;;;;;;;3.72;3.50;;;16.80;69.10;;;;;;5035129;28;20037;-74
2023/04/22 03:52:49;;;;;;;4.05;3.65;;;16.80;69.10;;;;;;5034934;28;20067;-74
2023/04/22 03:55:15;;;;;;;3.50;3.30;;;16.80;69.10;;;;;;5033838;28;20056;-74
2023/04/22 03:57:41;;;;;;;4.03;3.72;;;16.80;69.10;;;;;;5035246;28;20030;-74
2023/04/22 04:00:07;;;;;;;4.13;3.83;;;16.80;69.10;;;;;;5035005;28;20026;-74
2023/04/22 04:02:32;;;;;;;3.65;3.40;;;16.80;69.10;;;;;;5033933;28;20096;-74
2023/04/22 04:04:58;;;;;;;4.05;3.70;;;16.80;69.20;;;;;;5034716;28;20459;-74
2023/04/22 04:07:24;;;;;;;4.40;3.70;;;16.80;69.10;;;;;;5034939;28;20419;-74
2023/04/22 04:09:49;;;;;;;4.22;3.88;;;16.80;69.10;;;;;;5034802;28;20034;-74
2023/04/22 04:12:15;;;;;;;4.35;3.95;;;16.80;69.20;;;;;;5033513;28;20018;-74
2023/04/22 04:14:41;;;;;;;3.78;3.47;;;16.80;69.10;;;;;;5034618;28;20477;-74
2023/04/22 04:17:08;;;;;;;3.35;3.15;;;16.80;69.10;;;;;;5034654;28;20096;-74
2023/04/22 04:19:34;;;;;;;3.65;3.35;;;16.80;69.20;;;;;;5034569;28;20031;-74
2023/04/22 04:22:00;;;;;;;3.53;3.22;;;16.80;69.10;;;;;;5034680;28;20476;-74
2023/04/22 04:24:27;;;;;;;3.50;3.30;;;16.80;69.10;;;;;;5034623;28;20033;-74
2023/04/22 04:26:52;;;;;;;3.63;3.33;;;16.80;69.10;;;;;;5033437;28;20025;-74
2023/04/22 04:29:19;;;;;;;4.00;3.70;;;16.80;69.10;;;;;;5033116;28;20111;-74
2023/04/22 04:31:45;;;;;;;3.53;3.33;;;16.80;69.10;;;;;;5034563;28;20045;-74
2023/04/22 04:34:10;;;;;;;3.35;3.15;;;16.80;69.00;;;;;;5033247;28;20057;-74
2023/04/22 04:36:38;;;;;;;3.13;2.90;;;16.80;69.10;;;;;;5034280;28;20476;-74
2023/04/22 04:39:04;;;;;;;3.50;3.30;;;16.80;69.10;;;;;;5033310;28;20057;-73
2023/04/22 04:41:30;;;;;;;3.90;3.60;;;16.80;69.10;;;;;;5016735;28;20426;-74
2023/04/22 04:43:59;;;;;;;3.55;3.25;;;16.80;69.00;;;;;;5032808;28;20029;-74
2023/04/22 04:46:28;;;;;;;3.17;2.97;;;16.80;69.10;;;;;;5034256;28;20052;-74
2023/04/22 04:48:54;;;;;;;3.20;3.00;;;16.80;69.10;;;;;;5032792;28;20033;-74
2023/04/22 04:51:19;;;;;;;3.20;3.00;;;16.80;69.10;;;;;;5034122;28;20109;-74
2023/04/22 04:53:45;;;;;;;3.55;3.25;;;16.80;69.10;;;;;;5016339;28;20092;-73
2023/04/22 04:56:11;;;;;;;3.50;3.30;;;16.80;69.20;;;;;;5033941;28;20060;-74
2023/04/22 04:58:37;;;;;;;3.70;3.30;;;16.80;69.10;;;;;;5016535;28;20100;-73
2023/04/22 05:01:02;;;;;;;3.10;2.90;;;16.70;69.10;;;;;;5033928;28;20060;-74
2023/04/22 05:03:28;;;;;;;3.28;2.97;;;16.80;69.10;;;;;;5033525;28;20112;-74
2023/04/22 05:05:54;;;;;;;3.22;3.03;;;16.70;69.10;;;;;;5032549;28;20033;-74
2023/04/22 05:08:19;;;;;;;3.40;3.10;;;16.70;69.00;;;;;;5032699;28;20034;-74
2023/04/22 05:10:45;;;;;;;3.40;3.10;;;16.80;69.10;;;;;;5033521;28;20026;-74
2023/04/22 05:13:11;;;;;;;3.42;3.13;;;16.80;69.10;;;;;;5033643;28;20490;-74
2023/04/22 05:15:36;;;;;;;3.00;2.80;;;16.80;69.10;;;;;;5033664;28;20204;-74
2023/04/22 05:18:02;;;;;;;3.50;3.25;;;16.80;69.10;;;;;;5033304;28;20407;-74
2023/04/22 05:20:27;;;;;;;2.80;2.60;;;16.70;69.00;;;;;;5033580;28;20026;-74
2023/04/22 05:22:53;;;;;;;3.15;2.90;;;16.70;69.10;;;;;;5033157;28;20056;-74
2023/04/22 05:25:19;;;;;;;3.13;2.92;;;16.70;69.10;;;;;;5033177;28;20029;-74
2023/04/22 05:27:44;;;;;;;3.20;3.00;;;16.70;69.00;;;;;;5033335;28;20087;-73
2023/04/22 05:30:10;;;;;;;3.20;3.00;;;16.70;69.10;;;;;;5033358;28;20075;-73
2023/04/22 05:32:36;;;;;;;2.72;2.53;;;16.70;69.00;;;;;;5033135;28;20503;-74
2023/04/22 05:35:02;;;;;;;2.80;2.60;;;16.70;69.10;;;;;;5033317;28;20116;-74
2023/04/22 05:37:27;;;;;;;3.10;2.90;;;16.70;69.00;;;;;;5015703;28;20040;-74
2023/04/22 05:39:53;;;;;;;2.83;2.63;;;16.70;69.10;;;;;;5033017;28;20025;-74
2023/04/22 05:42:19;;;;;;;2.70;2.50;;;16.70;70.10;;;;;;5033061;28;20399;-74
2023/04/22 05:44:44;;;;;;;2.70;2.50;;;16.70;69.10;;;;;;5033214;28;20531;-74
2023/04/22 05:47:10;;;;;;;2.90;2.70;;;16.70;69.10;;;;;;5033180;28;20025;-74
2023/04/22 05:49:36;;;;;;;3.05;2.85;;;16.70;69.00;;;;;;5033230;28;20087;-74
2023/04/22 05:52:01;;;;;;;2.80;2.60;;;16.70;69.10;;;;;;5032745;28;20381;-73
2023/04/22 05:54:28;;;;;;;3.05;2.85;;;16.70;69.10;;;;;;5031383;28;20037;-73
2023/04/22 05:56:54;;;;;;;2.60;2.40;;;16.70;69.10;;;;;;5031816;28;20030;-74
2023/04/22 05:59:20;;;;;;;2.40;2.30;;;16.70;69.10;;;;;;5031663;28;20479;-74
2023/04/22 06:01:45;;;;;;;2.72;2.53;;;16.70;69.00;;;;;;5032619;28;20033;-74
2023/04/22 06:04:11;;;;;;;2.95;2.75;;;16.70;69.10;;;;;;5031534;28;20033;-74
2023/04/22 06:06:37;;;;;;;2.55;2.45;;;16.70;69.00;;;;;;5031377;28;20025;-74
2023/04/22 06:09:02;;;;;;;2.40;2.30;;;16.70;69.10;;;;;;5031557;28;20419;-74
2023/04/22 06:11:28;;;;;;;2.40;2.30;;;16.70;69.10;;;;;;5032568;28;20472;-73
2023/04/22 06:13:54;;;;;;;2.92;2.72;;;16.70;69.00;;;;;;5032595;28;20030;-74
2023/04/22 06:16:20;;;;;;;2.45;2.25;;;16.70;69.10;;;;;;5032527;28;20079;-74
2023/04/22 06:18:46;;;;;;;2.67;2.45;;;16.70;69.10;;;;;;5031390;28;20032;-73
2023/04/22 06:21:11;;;;;;;2.28;2.17;;;16.70;69.10;;;;;;5032559;28;20030;-74
2023/04/22 06:23:37;;;;;;;2.63;2.42;;;16.70;69.10;;;;;;5032570;28;20052;-74
2023/04/22 06:26:03;;;;;;;2.60;2.40;;;16.70;69.10;;;;;;5032392;28;20395;-74
2023/04/22 06:28:29;;;;;;;2.78;2.58;;;16.70;69.10;;;;;;5032528;28;20029;-74
2023/04/22 06:30:54;;;;;;;2.35;2.15;;;16.70;69.10;;;;;;5031018;28;20388;-74
2023/04/22 06:33:20;;;;;;;2.60;2.40;;;16.70;69.10;;;;;;5032432;28;20022;-74
2023/04/22 06:35:46;;;;;;;2.55;2.40;;;16.70;69.10;;;;;;5031750;28;20017;-74
2023/04/22 06:38:11;;;;;;;2.60;2.50;;;16.70;69.10;;;;;;5032498;28;20033;-74
2023/04/22 06:40:37;;;;;;;2.70;2.55;;;16.70;69.10;;;;;;5014731;28;20029;-74
2023/04/22 06:43:03;;;;;;;2.70;2.50;;;16.70;69.20;;;;;;5032412;28;20029;-74
2023/04/22 06:45:29;;;;;;;2.42;2.25;;;16.70;69.20;;;;;;5031049;28;20499;-73
2023/04/22 06:47:54;;;;;;;2.47;2.35;;;16.70;70.10;;;;;;5031076;28;20036;-74
2023/04/22 06:50:20;;;;;;;2.53;2.33;;;16.70;69.10;;;;;;5032375;28;20103;-74
2023/04/22 06:52:46;;;;;;;2.35;2.25;;;16.70;69.10;;;;;;5032263;28;20483;-74
2023/04/22 06:55:11;;;;;;;3.03;2.35;;;16.60;69.00;;;;;;5032011;28;20052;-74
2023/04/22 06:57:37;;;;;;;2.35;2.20;;;16.70;69.10;;;;;;5032400;28;20109;-74
2023/04/22 07:00:04;;;;;;;2.63;2.50;;;16.70;69.10;;;;;;5030608;28;20053;-73
2023/04/22 07:02:30;;;;;;;2.03;1.92;;;16.60;69.10;;;;;;5032100;28;20028;-74
2023/04/22 07:04:55;;;;;;;2.65;2.45;;;16.60;69.10;;;;;;5030993;28;20387;-74
2023/04/22 07:07:21;;;;;;;2.17;1.92;;;16.60;69.10;;;;;;5030949;28;20018;-74
2023/04/22 07:09:47;;;;;;;2.20;2.10;;;16.60;69.10;;;;;;5032068;28;20026;-74
2023/04/22 07:12:13;;;;;;;2.13;2.00;;;16.60;69.00;;;;;;5031981;28;20026;-74
2023/04/22 07:14:44;;;;;;;2.22;2.13;;;16.60;69.10;;;;;;5031880;28;20084;-74
2023/04/22 07:17:10;;;;;;;2.25;2.05;;;16.60;69.10;;;;;;5014772;28;20492;-74
2023/04/22 07:19:36;;;;;;;2.30;2.10;;;16.60;69.10;;;;;;5032124;28;20559;-74
2023/04/22 07:22:05;;;;;;;2.15;2.05;;;16.60;69.10;;;;;;5032052;28;20112;-74
2023/04/22 07:24:31;;;;;;;2.30;2.20;;;16.70;69.20;;;;;;5032014;28;20030;-73
2023/04/22 07:26:57;;;;;;;1.92;1.83;;;16.60;69.20;;;;;;5030788;28;20025;-74
2023/04/22 07:29:22;;;;;;;2.42;2.22;;;16.60;69.20;;;;;;5030550;28;20096;-74
2023/04/22 07:31:48;;;;;;;1.80;1.70;;;16.60;69.10;;;;;;5031760;28;20048;-74
2023/04/22 07:34:14;;;;;;;2.00;1.90;;;16.60;69.10;;;;;;5032200;28;20057;-74
2023/04/22 07:36:40;;;;;;;1.92;1.83;;;16.60;69.20;;;;;;5031922;28;20028;-74
2023/04/22 07:39:06;;;;;;;2.22;2.10;;;16.60;69.10;;;;;;5030785;28;20029;-74
2023/04/22 07:41:32;;;;;;;1.70;1.60;;;16.60;69.20;;;;;;5032021;28;20033;-74
2023/04/22 07:43:58;;;;;;;1.70;1.60;;;16.60;69.20;;;;;;5031433;28;20227;-74
2023/04/22 07:46:24;;;;;;;1.95;1.85;;;16.60;69.20;;;;;;5031248;28;20075;-74
2023/04/22 07:48:49;;;;;;;1.90;1.80;;;16.60;69.20;;;;;;5034077;28;20577;-74
2023/04/22 07:51:16;;;;;;;1.77;1.67;;;16.60;69.20;;;;;;5035221;28;20033;-74
2023/04/22 07:53:41;;;;;;;1.73;1.63;;;16.60;69.20;;;;;;5035428;28;20014;-74
2023/04/22 07:56:07;;;;;;;1.98;1.80;;;16.60;69.20;;;;;;5035009;28;20111;-74
2023/04/22 07:58:33;;;;;;;1.75;1.65;;;16.60;69.20;;;;;;5017320;28;20053;-74
2023/04/22 08:00:58;;;;;;;1.92;1.83;;;16.60;69.20;;;;;;5035279;28;20037;-74
2023/04/22 08:03:24;;;;;;;1.80;1.70;;;16.60;69.20;;;;;;5017260;28;20030;-74
2023/04/22 08:05:50;;;;;;;1.65;1.55;;;16.60;69.20;;;;;;5035077;28;20026;-74
2023/04/22 08:08:15;;;;;;;1.67;1.58;;;16.60;69.20;;;;;;5033805;28;20108;-74
2023/04/22 08:10:41;;;;;;;1.55;1.45;;;16.60;69.20;;;;;;5033889;28;20483;-74
2023/04/22 08:13:06;;;;;;;1.75;1.65;;;16.60;69.80;;;;;;5033447;28;20494;-74
2023/04/22 08:15:32;;;;;;;2.45;1.40;;;16.60;69.20;;;;;;5033640;28;20563;-74
2023/04/22 08:17:58;;;;;;;1.88;1.77;;;16.60;69.20;;;;;;5017188;28;20100;-74
2023/04/22 08:20:24;;;;;;;1.60;1.50;;;16.60;69.20;;;;;;5034951;28;20108;-74
2023/04/22 08:22:56;;;;;;;1.77;1.48;;;16.60;69.20;;;;;;5033558;28;20017;-74
2023/04/22 08:25:21;;;;;;;1.70;1.60;;;16.60;69.30;;;;;;5034717;28;20021;-74
2023/04/22 08:27:48;;;;;;;1.70;1.60;;;16.60;69.20;;;;;;5034292;28;20392;-74
2023/04/22 08:30:14;;;;;;;1.52;1.42;;;16.60;69.20;;;;;;5034715;28;20048;-74
2023/04/22 08:32:39;;;;;;;1.73;1.63;;;16.60;69.20;;;;;;5034608;28;20388;-74
2023/04/22 08:35:05;;;;;;;1.60;1.50;;;16.60;69.20;;;;;;5034613;28;20022;-74
2023/04/22 08:37:31;;;;;;;1.60;1.50;;;16.60;69.20;;;;;;5034550;28;20013;-74
2023/04/22 08:39:57;;;;;;;1.33;1.27;;;16.60;69.20;;;;;;5016562;28;20061;-74
2023/04/22 08:42:22;;;;;;;1.55;1.45;;;16.60;69.20;;;;;;5034556;28;20029;-74
2023/04/22 08:44:48;;;;;;;1.40;1.30;;;16.60;69.30;;;;;;5016767;28;20052;-73
2023/04/22 08:47:14;;;;;;;1.35;1.25;;;16.60;69.30;;;;;;5033051;28;20053;-74
2023/04/22 08:49:40;;;;;;;1.80;1.30;;;16.60;69.30;;;;;;5033188;28;20022;-73
2023/04/22 08:52:08;;;;;;;1.60;1.50;;;16.60;69.30;;;;;;5032891;28;20403;-74
2023/04/22 08:54:36;;;;;;;1.42;1.33;;;16.60;69.30;;;;;;5032532;28;20124;-74
2023/04/22 08:57:01;;;;;;;1.38;1.30;;;16.60;69.30;;;;;;5033003;28;20017;-74
2023/04/22 08:59:27;;;;;;;1.27;1.27;;;16.60;69.30;;;;;;5032161;28;20029;-73
2023/04/22 09:01:53;;;;;;;1.40;1.30;;;16.60;69.30;;;;;;5032800;28;20076;-73
2023/04/22 09:04:18;;;;;;;1.55;1.20;;;16.60;69.30;;;;;;5032715;28;20034;-74
2023/04/22 09:06:44;;;;;;;1.60;1.50;;;16.60;69.40;;;;;;5032733;28;20026;-74
2023/04/22 09:09:10;;;;;;;1.45;1.35;;;16.60;69.30;;;;;;5032384;28;20025;-74
2023/04/22 09:11:36;;;;;;;1.25;1.25;;;16.60;69.30;;;;;;5032752;28;20021;-74
2023/04/22 09:14:05;;;;;;;1.92;1.40;;;16.60;69.30;;;;;;5032535;28;20017;-73
2023/04/22 09:16:31;;;;;;;1.38;1.27;;;16.60;69.40;;;;;;5016170;28;20044;-74
2023/04/22 09:18:57;;;;;;;1.08;1.08;;;16.60;69.30;;;;;;5032575;28;20036;-73
2023/04/22 09:21:29;;;;;;;1.40;1.25;;;16.60;69.30;;;;;;5016203;28;20022;-74
2023/04/22 09:23:55;;;;;;;1.20;1.20;;;16.60;69.40;;;;;;5000196;28;20411;-74
2023/04/22 09:26:22;;;;;;;1.50;1.40;;;16.60;69.30;;;;;;5016044;28;20113;-74
2023/04/22 09:28:57;;;;;;;1.25;1.25;;;16.60;69.40;;;;;;5032252;28;20100;-74
2023/04/22 09:31:22;;;;;;;1.20;1.20;;;16.60;69.50;;;;;;5032295;28;20021;-74
2023/04/22 09:33:52;;;;;;;1.40;1.30;;;16.60;69.50;;;;;;5033390;28;20018;-73
2023/04/22 09:36:26;;;;;;;1.20;1.10;;;16.60;69.40;;;;;;5032260;28;20017;-74
2023/04/22 09:39:00;;;;;;;1.20;1.10;;;16.60;69.40;;;;;;5032101;28;20119;-73
2023/04/22 09:41:30;;;;;;;1.42;1.33;;;16.60;69.40;;;;;;5032005;28;20043;-74
2023/04/22 09:43:56;;;;;;;1.30;1.20;;;16.60;69.40;;;;;;5015655;28;20498;-73
2023/04/22 09:46:23;;;;;;;1.00;1.00;;;16.60;69.40;;;;;;5031977;28;20032;-74
2023/04/22 09:48:49;;;;;;;1.30;1.20;;;16.60;69.40;;;;;;5031831;28;20024;-73
2023/04/22 09:51:15;;;;;;;0.90;0.90;;;16.60;69.50;;;;;;5031964;28;20017;-73
2023/04/22 09:53:41;;;;;;;1.42;1.33;;;16.60;69.40;;;;;;5031775;28;20025;-74
2023/04/22 09:56:07;;;;;;;1.50;1.40;;;16.60;69.40;;;;;;5032633;28;20504;-74
2023/04/22 09:58:37;;;;;;;1.08;1.08;;;16.60;69.40;;;;;;5015345;28;20025;-74
2023/04/22 10:01:03;;;;;;;1.30;1.20;;;16.60;69.40;;;;;;5015889;28;20053;-74
2023/04/22 10:03:28;;;;;;;1.30;1.20;;;16.60;69.40;;;;;;5032698;28;20034;-74
2023/04/22 10:05:54;;;;;;;1.00;1.00;;;16.60;69.50;;;;;;5032934;28;20022;-74
2023/04/22 10:08:20;;;;;;;1.00;1.00;;;16.60;69.50;;;;;;5032739;28;20033;-73
2023/04/22 10:10:45;;;;;;;0.93;0.93;;;16.60;69.40;;;;;;5032788;28;20024;-73
2023/04/22 10:13:11;;;;;;;1.08;1.08;;;16.60;70.40;;;;;;5032598;28;20026;-73
2023/04/22 10:15:50;;;;;;;1.05;1.05;;;16.60;69.50;;;;;;5015311;28;20049;-74
2023/04/22 10:18:20;;;;;;;1.17;1.08;;;16.60;69.50;;;;;;5016549;28;20022;-74
2023/04/22 10:20:46;;;;;;;1.92;1.13;;;16.60;69.50;;;;;;5032682;28;20028;-73
2023/04/22 10:23:18;;;;;;;1.08;1.08;;;16.60;69.50;;;;;;5014757;28;20029;-73
2023/04/22 10:25:47;;;;;;;1.00;1.00;;;16.60;69.50;;;;;;5015102;28;20044;-74
2023/04/22 10:28:14;;;;;;;0.80;0.80;;;16.60;69.40;;;;;;5031480;28;20480;-74
2023/04/22 10:30:40;;;;;;;1.00;1.00;;;16.60;69.40;;;;;;5031371;28;20029;-73
2023/04/22 10:33:26;;;;;;;0.85;0.85;;;16.60;69.40;;;;;;5032383;28;20021;-74
2023/04/22 10:36:17;;;;;;;0.88;0.88;;;16.60;69.50;;;;;;5032475;28;20071;-73
2023/04/22 10:38:54;;;;;;;0.80;0.80;;;16.60;69.50;;;;;;5032490;28;20026;-73
2023/04/22 10:41:24;;;;;;;1.13;1.10;;;16.60;69.50;;;;;;5032503;28;20029;-73
2023/04/22 10:44:06;;;;;;;1.10;1.10;;;16.60;69.50;;;;;;5032180;28;20104;-73
2023/04/22 10:46:38;;;;;;;0.80;0.80;;;16.60;69.40;;;;;;5032426;28;20506;-74
2023/04/22 10:49:07;;;;;;;;;;;16.60;69.50;;;;;;5032745;28;20079;-73
2023/04/22 10:51:43;;;;;;;0.98;0.98;;;16.60;69.30;;;;;;5032264;28;19911;-74
2023/04/22 10:54:27;;;;;;;1.00;1.00;;;16.60;69.50;;;;;;5030978;28;20022;-73
2023/04/22 10:57:02;;;;;;;1.05;1.05;;;16.60;69.40;;;;;;5032298;28;20083;-74
2023/04/22 10:59:29;;;;;;;1.00;1.00;;;16.60;69.50;;;;;;5032249;28;20027;-73
2023/04/22 11:01:58;;;;;;;1.20;1.10;;;16.60;69.50;;;;;;5031096;28;20496;-73
2023/04/22 11:04:23;;;;;;;1.17;1.08;;;16.60;69.40;;;;;;5014905;28;20476;-74
2023/04/22 11:07:15;;;;;;;0.98;0.98;;;16.60;69.50;;;;;;5031901;28;20036;-74
2023/04/22 11:09:42;;;;;;;1.23;1.00;;;16.60;69.50;;;;;;5032111;28;20030;-73
2023/04/22 11:12:37;;;;;;;0.95;0.93;;;16.60;69.40;;;;;;5030724;28;20017;-74
2023/04/22 11:15:10;;;;;;;0.85;0.80;;;16.60;69.30;;;;;;5031005;28;20480;-73
2023/04/22 11:17:37;;;;;;;1.40;0.80;;;16.60;69.50;;;;;;5030953;28;20506;-74
2023/04/22 11:20:03;;;;;;;0.80;0.80;;;16.60;69.30;;;;;;5031725;28;20026;-74
2023/04/22 11:22:33;;;;;;;0.90;0.90;;;16.60;69.40;;;;;;5033038;28;20524;-74
2023/04/22 11:24:59;;;;;;;0.90;0.90;;;16.60;69.30;;;;;;5034706;28;20025;-73
2023/04/22 11:27:25;;;;;;;1.80;0.88;;;16.60;69.20;;;;;;5034758;28;20393;-73
2023/04/22 11:30:07;;;;;;;1.00;1.00;;;16.60;69.30;;;;;;5034467;28;20076;-74
2023/04/22 11:32:36;;;;;;;1.00;0.85;;;16.60;69.30;;;;;;5034431;28;20053;-73
2023/04/22 11:35:06;;;;;;;0.93;0.90;;;16.60;69.30;;;;;;5034396;28;20025;-74
2023/04/22 11:37:48;;;;;;;1.10;0.70;;;16.60;69.40;;;;;;5034535;28;20022;-73
2023/04/22 11:40:17;;;;;;;0.68;0.68;;;16.60;69.50;;;;;;5035499;28;20021;-73
2023/04/22 11:42:42;;;;;;;0.82;0.75;;;16.60;69.40;;;;;;5035407;28;20084;-74
2023/04/22 11:45:09;;;;;;;0.85;0.82;;;16.60;69.50;;;;;;5034188;28;20380;-73
2023/04/22 11:47:34;;;;;;;0.98;0.68;;;16.60;69.40;;;;;;5034307;28;20100;-74
2023/04/22 11:50:05;;;;;;;0.70;0.70;;;16.60;69.30;;;;;;5033873;28;20440;-73
2023/04/22 11:52:44;;;;;;;0.93;0.82;;;16.60;69.30;;;;;;5034138;28;20022;-74
2023/04/22 11:55:31;;;;;;;0.70;0.70;;;16.60;69.50;;;;;;5034984;28;20535;-74
2023/04/22 11:58:03;;;;;;;0.85;0.80;;;16.60;69.50;;;;;;5035273;28;20032;-74
2023/04/22 12:00:32;;;;;;;0.98;0.77;;;16.60;69.40;;;;;;5017933;28;20017;-74
2023/04/22 12:03:04;;;;;;;1.23;1.00;;;16.60;69.50;;;;;;5017682;28;20021;-74
2023/04/22 12:05:40;;;;;;;0.80;0.80;;;16.60;69.40;;;;;;5017843;28;20057;-73
2023/04/22 12:08:10;;;;;;;0.85;0.85;;;16.60;69.50;;;;;;5033757;28;20518;-73
2023/04/22 12:10:50;;;;;;;0.73;0.73;;;16.60;69.50;;;;;;5033762;28;20052;-74
2023/04/22 12:13:29;;;;;;;1.25;0.77;;;16.60;69.60;;;;;;5034801;28;20018;-74
2023/04/22 12:15:57;;;;;;;0.93;0.60;;;16.60;69.60;;;;;;5034795;28;20023;-74
2023/04/22 12:18:33;;;;;;;0.77;0.77;;;16.60;69.60;;;;;;5017404;28;20113;-73
2023/04/22 12:21:00;;;;;;;1.33;0.90;;;16.60;69.60;;;;;;5033731;28;20022;-74
2023/04/22 12:23:27;;;;;;;0.70;0.70;;;16.60;69.70;;;;;;5017181;28;20033;-73
2023/04/22 12:25:52;;;;;;;1.58;0.65;;;16.60;69.70;;;;;;5034892;28;20109;-74
2023/04/22 12:28:18;;;;;;;0.93;0.82;;;16.60;69.70;;;;;;5033344;28;20108;-74
2023/04/22 12:30:44;;;;;;;0.70;0.70;;;16.60;69.70;;;;;;5034646;28;20391;-73
2023/04/22 12:33:09;;;;;;;0.88;0.80;;;16.60;69.70;;;;;;5033120;28;20021;-73
2023/04/22 12:35:35;;;;;;;1.15;0.80;;;16.60;69.70;;;;;;5034774;28;20049;-74
2023/04/22 12:38:01;;;;;;;1.10;0.60;;;16.60;69.80;;;;;;5034534;28;20022;-74
2023/04/22 12:40:26;;;;;;;1.35;1.02;;;16.60;69.80;;;;;;5034517;28;20033;-74
2023/04/22 12:42:52;;;;;;;1.60;0.77;;;16.60;69.70;;;;;;5034347;28;20112;-74
2023/04/22 12:45:18;;;;;;;1.80;1.00;;;16.60;69.80;;;;;;5033210;28;20021;-74
2023/04/22 12:47:44;;;;;;;0.60;0.60;;;16.60;69.80;;;;;;5034239;28;20022;-74